Airfield :
LOGIN :

Register | Disclaimer

   EN    FR    IT 

 










Legend :    VFR   Marginal VFR   IFR   Intensive IFR   Very Intensive IFR
Visi :
Ceiling :
>= 8 km
>= 3000ft
5 to 8 km
1000 to 3000 ft
1500m to 5 km
500 to 1000 ft
800 to 1500m
200 to 500 ft
< 800m
< 200 ft
Symbols :   Thunderstorms  Fog  Heavy snow  Heavy precipitations  Wind > 20 kt
SIGMETs :     Misc.  Thunderstorms  Icing  Turbulence  Mountain Waves  Volcanic Ashes






- Airport Elevation : 250 ft


LERI - Alcantarilla

CURRENT METAR :
  • 121730Z 31008KT 270V350 9999 FEW060 28/05 Q1014 NOSIG

EXPIRED METARs :
  • 121700Z 25006KT 180V290 9999 FEW060 28/08 Q1014 NOSIG
  • 121630Z 23007KT 180V290 9999 FEW060 28/08 Q1013 NOSIG
  • 121600Z 24007KT 190V290 9999 FEW060 28/07 Q1013 NOSIG
  • 121530Z 25009KT 200V290 9999 FEW040 28/07 Q1014 NOSIG
  • 121500Z 26009KT 230V300 9999 FEW040 28/06 Q1014 NOSIG

TAF TAF LERI
Valid from the 12 at 18:00 until the 13 at 18:00 UTC


121700Z 1218/1318 32009KT CAVOK TX24/1310Z TN16/1303Z
BECMG 1311/1313 15012KT



MET'MAP, your aeronautical weather chart ! - Copyright ORBIFLY December 2007 - Disclaimer

ORBIFLY MET'MAP TEAM :

Programming & Development : Alexandra Zaïnal
Concept & original design : Baudouin d'Aumeries
Assistance for programming : Marc-Olivier Méhu
Technical & hardware support : Manuel Goepfert

Contact : metmap@orbifly.com




SOURCES & CREDITS :

   NOAA